createdAt,value
2022-08-27T04:59:46.969Z,132.00
2022-08-27T05:00:51.388Z,128.00
2022-08-27T05:01:55.898Z,128.00
2022-08-27T05:03:00.251Z,132.00
2022-08-27T05:04:04.675Z,140.00
2022-08-27T05:05:11.173Z,152.00
2022-08-27T05:06:13.458Z,156.00
2022-08-27T05:07:17.878Z,160.00
2022-08-27T05:08:22.270Z,164.00
2022-08-27T05:09:26.899Z,156.00
2022-08-27T05:10:31.058Z,156.00
2022-08-27T05:11:35.439Z,156.00
2022-08-27T05:12:39.865Z,160.00
2022-08-27T05:13:44.244Z,172.00
2022-08-27T05:14:48.641Z,180.00
2022-08-27T05:15:53.061Z,188.00
2022-08-27T05:16:57.453Z,204.00
2022-08-27T05:18:01.860Z,216.00
2022-08-27T05:19:06.240Z,224.00
2022-08-27T05:20:10.711Z,236.00
2022-08-27T05:21:15.092Z,264.00
2022-08-27T05:22:19.504Z,300.00
2022-08-27T05:23:23.891Z,320.00
2022-08-27T05:24:28.273Z,344.00
2022-08-27T05:25:32.652Z,372.00
2022-08-27T05:26:37.052Z,388.00
2022-08-27T05:27:41.478Z,420.00
2022-08-27T05:28:45.864Z,444.00
2022-08-27T05:29:50.242Z,452.00
2022-08-27T05:30:56.023Z,416.00
2022-08-27T05:31:59.026Z,392.00
2022-08-27T05:33:03.415Z,372.00
2022-08-27T05:34:10.137Z,368.00
2022-08-27T05:35:15.569Z,344.00
2022-08-27T05:36:16.585Z,348.00
2022-08-27T05:37:21.022Z,340.00
2022-08-27T05:38:25.414Z,344.00
2022-08-27T05:39:29.798Z,340.00
2022-08-27T05:40:34.227Z,332.00
2022-08-27T05:41:38.578Z,320.00
2022-08-27T05:42:42.983Z,320.00
2022-08-27T05:43:50.238Z,324.00
2022-08-27T05:44:51.804Z,340.00
2022-08-27T05:45:56.201Z,340.00
2022-08-27T05:47:00.626Z,340.00
2022-08-27T05:48:05.005Z,352.00
2022-08-27T05:49:09.416Z,372.00
2022-08-27T05:50:13.785Z,404.00
2022-08-27T05:51:25.129Z,432.00
2022-08-27T05:52:22.599Z,492.00
2022-08-27T05:55:59.998Z,600.00
2022-08-27T05:57:04.770Z,632.00
2022-08-27T05:58:09.327Z,604.00
2022-08-27T05:59:13.673Z,668.00
2022-08-27T06:00:18.109Z,696.00
2022-08-27T06:01:22.541Z,720.00
2022-08-27T06:04:30.332Z,740.00
2022-08-27T06:05:34.797Z,780.00
2022-08-27T06:06:39.213Z,752.00
2022-08-27T06:07:43.681Z,856.00
2022-08-27T06:08:48.139Z,840.00
2022-08-27T06:09:52.591Z,920.00
2022-08-27T06:10:57.290Z,960.00
2022-08-27T06:12:01.774Z,956.00
2022-08-27T06:13:08.692Z,952.00
2022-08-27T06:14:13.161Z,972.00
2022-08-27T06:15:17.902Z,1052.00
2022-08-27T06:16:26.179Z,1064.00
2022-08-27T06:17:34.389Z,1212.00
